sensor_id;sensor_type;location;lat;lon;timestamp;pressure;altitude;pressure_sealevel;temperature
70333;BMP280;57747;43.548;-5.704;2023-09-19T00:00:01;101854.88;;;20.03
70333;BMP280;57747;43.548;-5.704;2023-09-19T00:02:31;101861.13;;;20.03
70333;BMP280;57747;43.548;-5.704;2023-09-19T00:04:58;101862.25;;;20.02
70333;BMP280;57747;43.548;-5.704;2023-09-19T00:07:27;101855.38;;;20.05
70333;BMP280;57747;43.548;-5.704;2023-09-19T00:09:53;101859.53;;;20.02
70333;BMP280;57747;43.548;-5.704;2023-09-19T00:12:20;101859.38;;;20.07
70333;BMP280;57747;43.548;-5.704;2023-09-19T00:14:49;101861.00;;;20.17
70333;BMP280;57747;43.548;-5.704;2023-09-19T00:17:16;101861.03;;;20.26
70333;BMP280;57747;43.548;-5.704;2023-09-19T00:19:41;101854.41;;;20.27
70333;BMP280;57747;43.548;-5.704;2023-09-19T00:22:08;101859.72;;;20.23
70333;BMP280;57747;43.548;-5.704;2023-09-19T00:24:34;101866.91;;;20.37
70333;BMP280;57747;43.548;-5.704;2023-09-19T00:26:59;101857.97;;;20.36
70333;BMP280;57747;43.548;-5.704;2023-09-19T00:29:26;101856.19;;;20.32
70333;BMP280;57747;43.548;-5.704;2023-09-19T00:31:55;101859.56;;;20.20
70333;BMP280;57747;43.548;-5.704;2023-09-19T00:34:24;101864.03;;;20.24
70333;BMP280;57747;43.548;-5.704;2023-09-19T00:36:51;101858.13;;;20.22
70333;BMP280;57747;43.548;-5.704;2023-09-19T00:39:23;101857.00;;;20.23
70333;BMP280;57747;43.548;-5.704;2023-09-19T00:41:55;101857.97;;;20.36
70333;BMP280;57747;43.548;-5.704;2023-09-19T00:44:21;101851.56;;;20.32
70333;BMP280;57747;43.548;-5.704;2023-09-19T00:46:49;101851.56;;;20.32
70333;BMP280;57747;43.548;-5.704;2023-09-19T00:49:16;101854.75;;;20.25
70333;BMP280;57747;43.548;-5.704;2023-09-19T00:51:42;101851.41;;;20.20
70333;BMP280;57747;43.548;-5.704;2023-09-19T00:54:13;101852.19;;;20.20
70333;BMP280;57747;43.548;-5.704;2023-09-19T00:56:45;101846.41;;;20.13
70333;BMP280;57747;43.548;-5.704;2023-09-19T00:59:11;101854.25;;;20.15
70333;BMP280;57747;43.548;-5.704;2023-09-19T01:01:37;101848.50;;;20.16
70333;BMP280;57747;43.548;-5.704;2023-09-19T01:07:03;101843.69;;;20.13
70333;BMP280;57747;43.548;-5.704;2023-09-19T01:09:29;101845.78;;;20.16
70333;BMP280;57747;43.548;-5.704;2023-09-19T01:11:58;101845.13;;;20.10
70333;BMP280;57747;43.548;-5.704;2023-09-19T01:14:44;101845.28;;;20.05
70333;BMP280;57747;43.548;-5.704;2023-09-19T01:17:59;101846.22;;;20.09
70333;BMP280;57747;43.548;-5.704;2023-09-19T01:20:39;101840.34;;;20.07
70333;BMP280;57747;43.548;-5.704;2023-09-19T01:31:49;101823.50;;;20.14
70333;BMP280;57747;43.548;-5.704;2023-09-19T01:34:15;101820.00;;;20.14
70333;BMP280;57747;43.548;-5.704;2023-09-19T01:36:40;101827.53;;;20.17
70333;BMP280;57747;43.548;-5.704;2023-09-19T01:39:09;101826.22;;;20.14
70333;BMP280;57747;43.548;-5.704;2023-09-19T01:42:01;101828.63;;;19.98
70333;BMP280;57747;43.548;-5.704;2023-09-19T01:45:15;101824.94;;;19.94
70333;BMP280;57747;43.548;-5.704;2023-09-19T01:47:55;101818.03;;;19.97
70333;BMP280;57747;43.548;-5.704;2023-09-19T01:53:04;101819.81;;;19.93
70333;BMP280;57747;43.548;-5.704;2023-09-19T01:55:30;101816.00;;;20.02
70333;BMP280;57747;43.548;-5.704;2023-09-19T01:58:07;101813.91;;;20.08
70333;BMP280;57747;43.548;-5.704;2023-09-19T02:00:37;101807.97;;;20.15
70333;BMP280;57747;43.548;-5.704;2023-09-19T02:03:05;101811.66;;;20.10
70333;BMP280;57747;43.548;-5.704;2023-09-19T02:05:32;101806.69;;;20.12
70333;BMP280;57747;43.548;-5.704;2023-09-19T02:07:58;101804.63;;;20.00
70333;BMP280;57747;43.548;-5.704;2023-09-19T02:10:24;101797.88;;;20.06
70333;BMP280;57747;43.548;-5.704;2023-09-19T02:12:50;101803.97;;;20.03
70333;BMP280;57747;43.548;-5.704;2023-09-19T02:15:16;101805.56;;;19.96
70333;BMP280;57747;43.548;-5.704;2023-09-19T02:17:45;101803.50;;;20.10
70333;BMP280;57747;43.548;-5.704;2023-09-19T02:20:12;101803.97;;;20.12
70333;BMP280;57747;43.548;-5.704;2023-09-19T02:22:38;101791.19;;;20.04
70333;BMP280;57747;43.548;-5.704;2023-09-19T02:25:04;101788.91;;;20.06
70333;BMP280;57747;43.548;-5.704;2023-09-19T02:27:30;101792.59;;;20.10
70333;BMP280;57747;43.548;-5.704;2023-09-19T02:29:56;101794.22;;;20.11
70333;BMP280;57747;43.548;-5.704;2023-09-19T02:32:21;101791.34;;;19.99
70333;BMP280;57747;43.548;-5.704;2023-09-19T02:34:48;101785.06;;;19.81
70333;BMP280;57747;43.548;-5.704;2023-09-19T02:37:14;101772.25;;;19.73
70333;BMP280;57747;43.548;-5.704;2023-09-19T02:39:41;101778.81;;;19.71
70333;BMP280;57747;43.548;-5.704;2023-09-19T02:42:08;101782.47;;;19.67
70333;BMP280;57747;43.548;-5.704;2023-09-19T02:44:33;101778.63;;;19.68
70333;BMP280;57747;43.548;-5.704;2023-09-19T02:46:59;101777.34;;;19.65
70333;BMP280;57747;43.548;-5.704;2023-09-19T02:49:24;101779.41;;;19.51
70333;BMP280;57747;43.548;-5.704;2023-09-19T02:51:50;101779.88;;;19.53
70333;BMP280;57747;43.548;-5.704;2023-09-19T02:54:17;101779.09;;;19.52
70333;BMP280;57747;43.548;-5.704;2023-09-19T02:56:43;101775.88;;;19.50
70333;BMP280;57747;43.548;-5.704;2023-09-19T02:59:08;101777.94;;;19.45
70333;BMP280;57747;43.548;-5.704;2023-09-19T03:01:36;101775.78;;;19.24
70333;BMP280;57747;43.548;-5.704;2023-09-19T03:07:04;101774.81;;;19.20
70333;BMP280;57747;43.548;-5.704;2023-09-19T03:09:31;101770.59;;;19.05
70333;BMP280;57747;43.548;-5.704;2023-09-19T03:11:56;101774.75;;;19.03
70333;BMP280;57747;43.548;-5.704;2023-09-19T03:14:22;101777.78;;;19.10
70333;BMP280;57747;43.548;-5.704;2023-09-19T03:16:49;101771.19;;;19.02
70333;BMP280;57747;43.548;-5.704;2023-09-19T03:19:14;101770.06;;;18.94
70333;BMP280;57747;43.548;-5.704;2023-09-19T03:21:43;101770.72;;;19.00
70333;BMP280;57747;43.548;-5.704;2023-09-19T03:24:08;101775.03;;;19.01
70333;BMP280;57747;43.548;-5.704;2023-09-19T03:26:34;101772.25;;;18.92
70333;BMP280;57747;43.548;-5.704;2023-09-19T03:28:59;101761.41;;;18.92
70333;BMP280;57747;43.548;-5.704;2023-09-19T03:31:25;101765.72;;;18.93
70333;BMP280;57747;43.548;-5.704;2023-09-19T03:33:50;101772.44;;;18.96
70333;BMP280;57747;43.548;-5.704;2023-09-19T03:36:16;101761.56;;;18.96
70333;BMP280;57747;43.548;-5.704;2023-09-19T03:38:41;101762.09;;;18.98
70333;BMP280;57747;43.548;-5.704;2023-09-19T03:41:07;101757.34;;;18.81
70333;BMP280;57747;43.548;-5.704;2023-09-19T03:43:35;101750.78;;;18.82
70333;BMP280;57747;43.548;-5.704;2023-09-19T03:46:03;101748.41;;;18.81
70333;BMP280;57747;43.548;-5.704;2023-09-19T03:48:30;101750.63;;;18.78
70333;BMP280;57747;43.548;-5.704;2023-09-19T03:50:56;101739.56;;;18.75
70333;BMP280;57747;43.548;-5.704;2023-09-19T03:53:26;101742.59;;;18.73
70333;BMP280;57747;43.548;-5.704;2023-09-19T03:55:52;101734.91;;;18.67
70333;BMP280;57747;43.548;-5.704;2023-09-19T03:58:18;101741.28;;;18.62
70333;BMP280;57747;43.548;-5.704;2023-09-19T04:00:44;101744.16;;;18.66
70333;BMP280;57747;43.548;-5.704;2023-09-19T04:03:12;101748.03;;;18.73
70333;BMP280;57747;43.548;-5.704;2023-09-19T04:05:45;101746.75;;;18.71
70333;BMP280;57747;43.548;-5.704;2023-09-19T04:08:14;101744.66;;;18.68
70333;BMP280;57747;43.548;-5.704;2023-09-19T04:10:43;101747.31;;;18.59
70333;BMP280;57747;43.548;-5.704;2023-09-19T04:13:09;101751.28;;;18.53
70333;BMP280;57747;43.548;-5.704;2023-09-19T04:15:34;101750.59;;;18.47
70333;BMP280;57747;43.548;-5.704;2023-09-19T04:18:00;101740.91;;;18.32
70333;BMP280;57747;43.548;-5.704;2023-09-19T04:20:29;101735.84;;;18.39
70333;BMP280;57747;43.548;-5.704;2023-09-19T04:22:57;101745.28;;;18.42
70333;BMP280;57747;43.548;-5.704;2023-09-19T04:25:22;101741.09;;;18.36
70333;BMP280;57747;43.548;-5.704;2023-09-19T04:27:48;101737.56;;;18.35
70333;BMP280;57747;43.548;-5.704;2023-09-19T04:30:13;101731.25;;;18.26
70333;BMP280;57747;43.548;-5.704;2023-09-19T04:32:40;101734.16;;;18.30
70333;BMP280;57747;43.548;-5.704;2023-09-19T04:35:10;101733.50;;;18.24
70333;BMP280;57747;43.548;-5.704;2023-09-19T04:37:39;101739.53;;;18.21
70333;BMP280;57747;43.548;-5.704;2023-09-19T04:40:07;101738.63;;;18.26
70333;BMP280;57747;43.548;-5.704;2023-09-19T04:42:40;101740.72;;;18.29
70333;BMP280;57747;43.548;-5.704;2023-09-19T04:45:10;101733.63;;;18.19
70333;BMP280;57747;43.548;-5.704;2023-09-19T04:47:36;101734.56;;;18.14
70333;BMP280;57747;43.548;-5.704;2023-09-19T04:50:06;101730.81;;;18.10
70333;BMP280;57747;43.548;-5.704;2023-09-19T04:52:32;101724.50;;;18.01
70333;BMP280;57747;43.548;-5.704;2023-09-19T04:55:00;101727.16;;;17.92
70333;BMP280;57747;43.548;-5.704;2023-09-19T04:57:25;101720.31;;;17.95
70333;BMP280;57747;43.548;-5.704;2023-09-19T04:59:51;101720.63;;;17.93
70333;BMP280;57747;43.548;-5.704;2023-09-19T05:02:16;101717.13;;;17.79
70333;BMP280;57747;43.548;-5.704;2023-09-19T05:04:42;101719.38;;;17.77
70333;BMP280;57747;43.548;-5.704;2023-09-19T05:07:11;101713.03;;;17.67
70333;BMP280;57747;43.548;-5.704;2023-09-19T05:09:36;101712.44;;;17.71
70333;BMP280;57747;43.548;-5.704;2023-09-19T05:12:03;101718.19;;;17.69
70333;BMP280;57747;43.548;-5.704;2023-09-19T05:14:28;101706.81;;;17.67
70333;BMP280;57747;43.548;-5.704;2023-09-19T05:16:56;101718.06;;;17.60
70333;BMP280;57747;43.548;-5.704;2023-09-19T05:19:22;101712.84;;;17.64
70333;BMP280;57747;43.548;-5.704;2023-09-19T05:21:47;101710.75;;;17.61
70333;BMP280;57747;43.548;-5.704;2023-09-19T05:24:13;101711.63;;;17.56
70333;BMP280;57747;43.548;-5.704;2023-09-19T05:26:42;101718.38;;;17.59
70333;BMP280;57747;43.548;-5.704;2023-09-19T05:29:08;101716.06;;;17.52
70333;BMP280;57747;43.548;-5.704;2023-09-19T05:31:34;101716.28;;;17.56
70333;BMP280;57747;43.548;-5.704;2023-09-19T05:34:01;101718.97;;;17.56
70333;BMP280;57747;43.548;-5.704;2023-09-19T05:36:27;101717.59;;;17.58
70333;BMP280;57747;43.548;-5.704;2023-09-19T05:38:55;101721.16;;;17.67
70333;BMP280;57747;43.548;-5.704;2023-09-19T05:41:23;101713.88;;;17.68
70333;BMP280;57747;43.548;-5.704;2023-09-19T05:43:49;101717.56;;;17.72
70333;BMP280;57747;43.548;-5.704;2023-09-19T05:46:18;101719.47;;;17.72
70333;BMP280;57747;43.548;-5.704;2023-09-19T05:48:43;101710.81;;;17.70
70333;BMP280;57747;43.548;-5.704;2023-09-19T05:51:09;101717.25;;;17.74
70333;BMP280;57747;43.548;-5.704;2023-09-19T05:53:35;101719.38;;;17.77
70333;BMP280;57747;43.548;-5.704;2023-09-19T05:56:00;101721.56;;;17.75
70333;BMP280;57747;43.548;-5.704;2023-09-19T05:58:28;101714.53;;;17.74
70333;BMP280;57747;43.548;-5.704;2023-09-19T06:00:54;101710.31;;;17.67
70333;BMP280;57747;43.548;-5.704;2023-09-19T06:03:21;101708.56;;;17.63
70333;BMP280;57747;43.548;-5.704;2023-09-19T06:05:49;101704.91;;;17.67
70333;BMP280;57747;43.548;-5.704;2023-09-19T06:08:14;101716.25;;;17.70
70333;BMP280;57747;43.548;-5.704;2023-09-19T06:10:40;101716.25;;;17.70
70333;BMP280;57747;43.548;-5.704;2023-09-19T06:13:05;101724.06;;;17.71
70333;BMP280;57747;43.548;-5.704;2023-09-19T06:15:31;101715.56;;;17.64
70333;BMP280;57747;43.548;-5.704;2023-09-19T06:17:59;101718.94;;;17.70
70333;BMP280;57747;43.548;-5.704;2023-09-19T06:20:27;101716.56;;;17.68
70333;BMP280;57747;43.548;-5.704;2023-09-19T06:22:53;101721.56;;;17.75
70333;BMP280;57747;43.548;-5.704;2023-09-19T06:25:19;101725.09;;;17.61
70333;BMP280;57747;43.548;-5.704;2023-09-19T06:27:52;101734.34;;;17.60
70333;BMP280;57747;43.548;-5.704;2023-09-19T06:30:19;101734.16;;;17.57
70333;BMP280;57747;43.548;-5.704;2023-09-19T06:32:45;101728.44;;;17.58
70333;BMP280;57747;43.548;-5.704;2023-09-19T06:35:17;101734.47;;;17.69
70333;BMP280;57747;43.548;-5.704;2023-09-19T06:37:43;101733.03;;;17.72
70333;BMP280;57747;43.548;-5.704;2023-09-19T06:40:13;101737.53;;;17.76
70333;BMP280;57747;43.548;-5.704;2023-09-19T06:42:44;101736.31;;;17.82
70333;BMP280;57747;43.548;-5.704;2023-09-19T06:45:11;101744.34;;;17.88
70333;BMP280;57747;43.548;-5.704;2023-09-19T06:47:39;101739.22;;;17.86
70333;BMP280;57747;43.548;-5.704;2023-09-19T06:50:05;101740.53;;;17.89
70333;BMP280;57747;43.548;-5.704;2023-09-19T06:52:37;101745.13;;;18.02
70333;BMP280;57747;43.548;-5.704;2023-09-19T06:55:03;101743.31;;;17.97
70333;BMP280;57747;43.548;-5.704;2023-09-19T06:57:28;101743.63;;;17.96
70333;BMP280;57747;43.548;-5.704;2023-09-19T06:59:56;101744.03;;;18.03
70333;BMP280;57747;43.548;-5.704;2023-09-19T07:02:21;101744.22;;;18.07
70333;BMP280;57747;43.548;-5.704;2023-09-19T07:04:47;101743.78;;;18.13
70333;BMP280;57747;43.548;-5.704;2023-09-19T07:07:12;101746.38;;;18.18
70333;BMP280;57747;43.548;-5.704;2023-09-19T07:09:39;101750.44;;;18.30
70333;BMP280;57747;43.548;-5.704;2023-09-19T07:12:05;101745.22;;;18.33
70333;BMP280;57747;43.548;-5.704;2023-09-19T07:14:31;101746.69;;;18.39
70333;BMP280;57747;43.548;-5.704;2023-09-19T07:16:57;101740.09;;;18.54
70333;BMP280;57747;43.548;-5.704;2023-09-19T07:19:25;101740.66;;;18.65
70333;BMP280;57747;43.548;-5.704;2023-09-19T07:21:53;101738.59;;;18.71
70333;BMP280;57747;43.548;-5.704;2023-09-19T07:24:19;101738.13;;;18.77
70333;BMP280;57747;43.548;-5.704;2023-09-19T07:27:05;101739.66;;;18.92
70333;BMP280;57747;43.548;-5.704;2023-09-19T07:30:06;101747.56;;;19.03
70333;BMP280;57747;43.548;-5.704;2023-09-19T07:32:34;101744.22;;;19.14
70333;BMP280;57747;43.548;-5.704;2023-09-19T07:35:02;101743.13;;;19.15
70333;BMP280;57747;43.548;-5.704;2023-09-19T07:37:29;101749.06;;;19.18
70333;BMP280;57747;43.548;-5.704;2023-09-19T07:39:56;101753.41;;;19.27
70333;BMP280;57747;43.548;-5.704;2023-09-19T07:42:24;101747.50;;;19.34
70333;BMP280;57747;43.548;-5.704;2023-09-19T07:44:52;101751.53;;;19.37
70333;BMP280;57747;43.548;-5.704;2023-09-19T07:47:21;101750.91;;;19.48
70333;BMP280;57747;43.548;-5.704;2023-09-19T07:49:47;101755.84;;;19.46
70333;BMP280;57747;43.548;-5.704;2023-09-19T07:52:13;101746.72;;;19.42
70333;BMP280;57747;43.548;-5.704;2023-09-19T07:54:39;101754.59;;;19.52
70333;BMP280;57747;43.548;-5.704;2023-09-19T07:57:07;101756.22;;;19.62
70333;BMP280;57747;43.548;-5.704;2023-09-19T07:59:32;101746.16;;;19.71
70333;BMP280;57747;43.548;-5.704;2023-09-19T08:01:58;101752.84;;;19.65
70333;BMP280;57747;43.548;-5.704;2023-09-19T08:04:24;101744.72;;;19.74
70333;BMP280;57747;43.548;-5.704;2023-09-19T08:06:51;101754.19;;;19.85
70333;BMP280;57747;43.548;-5.704;2023-09-19T08:09:17;101756.59;;;19.87
70333;BMP280;57747;43.548;-5.704;2023-09-19T08:11:48;101752.88;;;19.91
70333;BMP280;57747;43.548;-5.704;2023-09-19T08:14:18;101749.84;;;20.02
70333;BMP280;57747;43.548;-5.704;2023-09-19T08:16:43;101750.78;;;20.15
70333;BMP280;57747;43.548;-5.704;2023-09-19T08:19:10;101742.78;;;20.27
70333;BMP280;57747;43.548;-5.704;2023-09-19T08:21:36;101753.84;;;20.31
70333;BMP280;57747;43.548;-5.704;2023-09-19T08:24:02;101749.50;;;20.38
70333;BMP280;57747;43.548;-5.704;2023-09-19T08:26:30;101749.00;;;20.54
70333;BMP280;57747;43.548;-5.704;2023-09-19T08:28:56;101751.53;;;20.67
70333;BMP280;57747;43.548;-5.704;2023-09-19T08:31:22;101755.06;;;20.59
70333;BMP280;57747;43.548;-5.704;2023-09-19T08:33:49;101762.06;;;20.78
70333;BMP280;57747;43.548;-5.704;2023-09-19T08:36:19;101742.97;;;20.87
70333;BMP280;57747;43.548;-5.704;2023-09-19T08:38:45;101750.13;;;21.00
70333;BMP280;57747;43.548;-5.704;2023-09-19T08:41:11;101744.84;;;21.03
70333;BMP280;57747;43.548;-5.704;2023-09-19T08:43:39;101752.53;;;21.31
70333;BMP280;57747;43.548;-5.704;2023-09-19T08:48:33;101751.63;;;21.48
70333;BMP280;57747;43.548;-5.704;2023-09-19T08:51:12;101756.94;;;21.45
70333;BMP280;57747;43.548;-5.704;2023-09-19T08:54:03;101756.06;;;21.53
70333;BMP280;57747;43.548;-5.704;2023-09-19T08:56:32;101739.25;;;21.51
70333;BMP280;57747;43.548;-5.704;2023-09-19T09:01:24;101752.56;;;21.73
70333;BMP280;57747;43.548;-5.704;2023-09-19T09:03:53;101748.22;;;21.72
70333;BMP280;57747;43.548;-5.704;2023-09-19T09:06:20;101753.00;;;21.96
70333;BMP280;57747;43.548;-5.704;2023-09-19T09:08:47;101743.03;;;21.79
70333;BMP280;57747;43.548;-5.704;2023-09-19T09:11:14;101734.78;;;21.88
70333;BMP280;57747;43.548;-5.704;2023-09-19T09:13:41;101738.53;;;22.17
70333;BMP280;57747;43.548;-5.704;2023-09-19T09:16:07;101736.38;;;22.23
70333;BMP280;57747;43.548;-5.704;2023-09-19T09:18:35;101734.94;;;22.37
70333;BMP280;57747;43.548;-5.704;2023-09-19T09:21:03;101739.19;;;22.60
70333;BMP280;57747;43.548;-5.704;2023-09-19T09:23:32;101737.44;;;22.55
70333;BMP280;57747;43.548;-5.704;2023-09-19T09:25:58;101737.47;;;22.80
70333;BMP280;57747;43.548;-5.704;2023-09-19T09:28:33;101744.56;;;22.81
70333;BMP280;57747;43.548;-5.704;2023-09-19T09:31:02;101737.16;;;22.81
70333;BMP280;57747;43.548;-5.704;2023-09-19T09:33:33;101730.09;;;22.80
70333;BMP280;57747;43.548;-5.704;2023-09-19T09:36:00;101733.88;;;23.00
70333;BMP280;57747;43.548;-5.704;2023-09-19T09:38:29;101728.47;;;23.16
70333;BMP280;57747;43.548;-5.704;2023-09-19T09:41:01;101728.91;;;23.18
70333;BMP280;57747;43.548;-5.704;2023-09-19T09:43:33;101734.16;;;22.99
70333;BMP280;57747;43.548;-5.704;2023-09-19T09:46:17;101732.13;;;22.95
70333;BMP280;57747;43.548;-5.704;2023-09-19T09:48:46;101721.59;;;23.22
70333;BMP280;57747;43.548;-5.704;2023-09-19T09:51:31;101723.75;;;23.41
70333;BMP280;57747;43.548;-5.704;2023-09-19T09:54:18;101713.41;;;23.63
70333;BMP280;57747;43.548;-5.704;2023-09-19T09:56:59;101718.31;;;23.85
70333;BMP280;57747;43.548;-5.704;2023-09-19T09:59:56;101719.38;;;23.81
70333;BMP280;57747;43.548;-5.704;2023-09-19T10:02:54;101721.69;;;24.10
70333;BMP280;57747;43.548;-5.704;2023-09-19T10:05:20;101712.69;;;23.66
70333;BMP280;57747;43.548;-5.704;2023-09-19T10:07:47;101712.06;;;24.01
70333;BMP280;57747;43.548;-5.704;2023-09-19T10:10:37;101712.34;;;24.11
70333;BMP280;57747;43.548;-5.704;2023-09-19T10:13:09;101714.31;;;24.43
70333;BMP280;57747;43.548;-5.704;2023-09-19T10:15:39;101718.13;;;24.22
70333;BMP280;57747;43.548;-5.704;2023-09-19T10:18:12;101708.81;;;24.11
70333;BMP280;57747;43.548;-5.704;2023-09-19T10:20:44;101707.75;;;24.47
70333;BMP280;57747;43.548;-5.704;2023-09-19T10:23:11;101709.38;;;24.48
70333;BMP280;57747;43.548;-5.704;2023-09-19T10:25:46;101704.56;;;24.29
70333;BMP280;57747;43.548;-5.704;2023-09-19T10:28:17;101703.50;;;24.66
70333;BMP280;57747;43.548;-5.704;2023-09-19T10:30:48;101706.38;;;24.89
70333;BMP280;57747;43.548;-5.704;2023-09-19T10:33:20;101707.59;;;24.91
70333;BMP280;57747;43.548;-5.704;2023-09-19T10:35:50;101706.38;;;24.54
70333;BMP280;57747;43.548;-5.704;2023-09-19T10:38:26;101700.53;;;24.39
70333;BMP280;57747;43.548;-5.704;2023-09-19T10:40:54;101703.06;;;24.64
70333;BMP280;57747;43.548;-5.704;2023-09-19T10:43:30;101703.31;;;24.94
70333;BMP280;57747;43.548;-5.704;2023-09-19T10:46:01;101694.28;;;24.74
70333;BMP280;57747;43.548;-5.704;2023-09-19T10:48:29;101701.63;;;24.70
70333;BMP280;57747;43.548;-5.704;2023-09-19T10:53:54;101696.66;;;24.76
70333;BMP280;57747;43.548;-5.704;2023-09-19T10:56:23;101694.06;;;24.47
70333;BMP280;57747;43.548;-5.704;2023-09-19T10:59:25;101684.44;;;24.38
70333;BMP280;57747;43.548;-5.704;2023-09-19T11:01:55;101689.44;;;24.67
70333;BMP280;57747;43.548;-5.704;2023-09-19T11:07:01;101682.53;;;25.28
70333;BMP280;57747;43.548;-5.704;2023-09-19T11:14:58;101682.41;;;25.05
70333;BMP280;57747;43.548;-5.704;2023-09-19T11:17:39;101677.03;;;25.28
70333;BMP280;57747;43.548;-5.704;2023-09-19T11:30:48;101670.78;;;25.51
70333;BMP280;57747;43.548;-5.704;2023-09-19T11:33:31;101671.47;;;25.67
70333;BMP280;57747;43.548;-5.704;2023-09-19T11:46:33;101655.06;;;25.71
70333;BMP280;57747;43.548;-5.704;2023-09-19T11:49:26;101650.09;;;26.26
70333;BMP280;57747;43.548;-5.704;2023-09-19T11:52:40;101650.16;;;25.80
70333;BMP280;57747;43.548;-5.704;2023-09-19T11:55:15;101646.69;;;25.41
70333;BMP280;57747;43.548;-5.704;2023-09-19T11:58:21;101644.34;;;25.85
70333;BMP280;57747;43.548;-5.704;2023-09-19T12:01:05;101644.75;;;25.87
70333;BMP280;57747;43.548;-5.704;2023-09-19T12:03:42;101638.50;;;25.67
70333;BMP280;57747;43.548;-5.704;2023-09-19T12:06:11;101635.84;;;25.71
70333;BMP280;57747;43.548;-5.704;2023-09-19T12:08:43;101629.00;;;25.38
70333;BMP280;57747;43.548;-5.704;2023-09-19T12:11:16;101632.22;;;26.13
70333;BMP280;57747;43.548;-5.704;2023-09-19T12:13:43;101628.63;;;25.86
70333;BMP280;57747;43.548;-5.704;2023-09-19T12:16:20;101627.13;;;26.15
70333;BMP280;57747;43.548;-5.704;2023-09-19T12:18:50;101627.97;;;26.46
70333;BMP280;57747;43.548;-5.704;2023-09-19T12:24:04;101621.53;;;25.85
70333;BMP280;57747;43.548;-5.704;2023-09-19T12:26:44;101627.84;;;25.62
70333;BMP280;57747;43.548;-5.704;2023-09-19T12:29:17;101618.16;;;25.68
70333;BMP280;57747;43.548;-5.704;2023-09-19T12:31:56;101616.91;;;25.43
70333;BMP280;57747;43.548;-5.704;2023-09-19T12:34:27;101607.16;;;25.68
70333;BMP280;57747;43.548;-5.704;2023-09-19T12:37:09;101608.63;;;26.12
70333;BMP280;57747;43.548;-5.704;2023-09-19T12:39:50;101600.75;;;26.37
70333;BMP280;57747;43.548;-5.704;2023-09-19T12:42:24;101605.66;;;25.94
70333;BMP280;57747;43.548;-5.704;2023-09-19T12:44:56;101613.25;;;26.31
70333;BMP280;57747;43.548;-5.704;2023-09-19T12:47:23;101607.63;;;26.50
70333;BMP280;57747;43.548;-5.704;2023-09-19T12:50:15;101608.22;;;26.67
70333;BMP280;57747;43.548;-5.704;2023-09-19T12:52:52;101598.56;;;26.80
70333;BMP280;57747;43.548;-5.704;2023-09-19T12:55:22;101590.66;;;27.13
70333;BMP280;57747;43.548;-5.704;2023-09-19T12:58:15;101590.63;;;26.41
70333;BMP280;57747;43.548;-5.704;2023-09-19T13:00:44;101593.34;;;25.88
70333;BMP280;57747;43.548;-5.704;2023-09-19T13:06:07;101587.59;;;25.70
70333;BMP280;57747;43.548;-5.704;2023-09-19T13:08:37;101581.75;;;25.98
70333;BMP280;57747;43.548;-5.704;2023-09-19T13:11:17;101577.97;;;26.37
70333;BMP280;57747;43.548;-5.704;2023-09-19T13:14:34;101578.34;;;26.65
70333;BMP280;57747;43.548;-5.704;2023-09-19T13:16:53;101572.78;;;26.01
70333;BMP280;57747;43.548;-5.704;2023-09-19T13:19:44;101564.28;;;26.10
70333;BMP280;57747;43.548;-5.704;2023-09-19T13:22:39;101557.72;;;25.42
70333;BMP280;57747;43.548;-5.704;2023-09-19T13:25:09;101557.66;;;25.19
70333;BMP280;57747;43.548;-5.704;2023-09-19T13:27:43;101552.50;;;25.60
70333;BMP280;57747;43.548;-5.704;2023-09-19T13:30:12;101561.69;;;25.71
70333;BMP280;57747;43.548;-5.704;2023-09-19T13:32:38;101549.84;;;25.90
70333;BMP280;57747;43.548;-5.704;2023-09-19T13:35:07;101553.66;;;26.39
70333;BMP280;57747;43.548;-5.704;2023-09-19T13:37:37;101558.53;;;26.22
70333;BMP280;57747;43.548;-5.704;2023-09-19T13:40:08;101552.63;;;25.67
70333;BMP280;57747;43.548;-5.704;2023-09-19T13:42:37;101548.13;;;25.32
70333;BMP280;57747;43.548;-5.704;2023-09-19T13:45:03;101550.81;;;25.28
70333;BMP280;57747;43.548;-5.704;2023-09-19T13:47:32;101544.06;;;25.45
70333;BMP280;57747;43.548;-5.704;2023-09-19T13:50:02;101542.13;;;25.73
70333;BMP280;57747;43.548;-5.704;2023-09-19T13:52:29;101540.41;;;25.91
70333;BMP280;57747;43.548;-5.704;2023-09-19T13:54:56;101542.63;;;25.55
70333;BMP280;57747;43.548;-5.704;2023-09-19T13:57:30;101535.84;;;25.72
70333;BMP280;57747;43.548;-5.704;2023-09-19T13:59:58;101540.28;;;25.57
70333;BMP280;57747;43.548;-5.704;2023-09-19T14:02:24;101538.38;;;25.58
70333;BMP280;57747;43.548;-5.704;2023-09-19T14:04:51;101529.22;;;26.30
70333;BMP280;57747;43.548;-5.704;2023-09-19T14:07:17;101529.59;;;26.32
70333;BMP280;57747;43.548;-5.704;2023-09-19T14:09:45;101534.06;;;26.74
70333;BMP280;57747;43.548;-5.704;2023-09-19T14:12:11;101540.09;;;26.23
70333;BMP280;57747;43.548;-5.704;2023-09-19T14:14:37;101533.31;;;26.13
70333;BMP280;57747;43.548;-5.704;2023-09-19T14:17:04;101523.84;;;26.41
70333;BMP280;57747;43.548;-5.704;2023-09-19T14:19:29;101526.25;;;26.46
70333;BMP280;57747;43.548;-5.704;2023-09-19T14:21:55;101517.78;;;26.62
70333;BMP280;57747;43.548;-5.704;2023-09-19T14:24:21;101519.88;;;26.72
70333;BMP280;57747;43.548;-5.704;2023-09-19T14:26:47;101520.47;;;26.55
70333;BMP280;57747;43.548;-5.704;2023-09-19T14:29:13;101516.81;;;26.43
70333;BMP280;57747;43.548;-5.704;2023-09-19T14:31:39;101519.16;;;27.16
70333;BMP280;57747;43.548;-5.704;2023-09-19T14:34:05;101514.06;;;27.22
70333;BMP280;57747;43.548;-5.704;2023-09-19T14:36:31;101510.41;;;27.03
70333;BMP280;57747;43.548;-5.704;2023-09-19T14:38:57;101502.66;;;26.79
70333;BMP280;57747;43.548;-5.704;2023-09-19T14:41:23;101501.38;;;26.69
70333;BMP280;57747;43.548;-5.704;2023-09-19T14:43:51;101489.00;;;26.18
70333;BMP280;57747;43.548;-5.704;2023-09-19T14:46:17;101489.94;;;25.99
70333;BMP280;57747;43.548;-5.704;2023-09-19T14:48:44;101499.31;;;26.59
70333;BMP280;57747;43.548;-5.704;2023-09-19T14:51:12;101491.09;;;26.28
70333;BMP280;57747;43.548;-5.704;2023-09-19T14:53:39;101491.03;;;26.25
70333;BMP280;57747;43.548;-5.704;2023-09-19T14:56:07;101485.31;;;27.16
70333;BMP280;57747;43.548;-5.704;2023-09-19T14:58:36;101486.22;;;27.27